createdAt,value
2018-06-20T00:01:54.883Z,12.23
2018-06-20T00:04:23.535Z,12.13
2018-06-20T00:06:52.158Z,13.43
2018-06-20T00:09:20.526Z,11.73
2018-06-20T00:11:49.197Z,12.20
2018-06-20T00:14:17.793Z,10.87
2018-06-20T00:16:46.450Z,10.97
2018-06-20T00:19:15.040Z,11.57
2018-06-20T00:21:43.719Z,11.70
2018-06-20T00:24:12.380Z,11.43
2018-06-20T00:26:41.356Z,11.10
2018-06-20T00:29:10.015Z,13.03
2018-06-20T00:31:38.655Z,11.60
2018-06-20T00:34:07.205Z,12.90
2018-06-20T00:36:35.503Z,12.73
2018-06-20T00:39:05.939Z,12.37
2018-06-20T00:41:34.542Z,11.83
2018-06-20T00:44:03.095Z,11.77
2018-06-20T00:46:31.374Z,12.40
2018-06-20T00:48:59.915Z,12.50
2018-06-20T00:51:28.560Z,13.00
2018-06-20T00:53:57.167Z,12.97
2018-06-20T00:56:27.131Z,12.43
2018-06-20T00:58:55.417Z,11.80
2018-06-20T01:01:24.419Z,13.17
2018-06-20T01:03:53.779Z,15.23
2018-06-20T01:06:22.740Z,12.77
2018-06-20T01:08:56.107Z,12.97
2018-06-20T01:11:25.166Z,12.67
2018-06-20T01:13:53.863Z,13.13
2018-06-20T01:16:22.121Z,12.90
2018-06-20T01:18:50.768Z,13.33
2018-06-20T01:21:19.375Z,13.70
2018-06-20T01:23:48.297Z,13.30
2018-06-20T01:26:16.707Z,14.97
2018-06-20T01:28:45.312Z,11.67
2018-06-20T01:31:13.956Z,14.30
2018-06-20T01:33:43.565Z,12.93
2018-06-20T01:36:12.695Z,15.67
2018-06-20T01:38:42.511Z,14.57
2018-06-20T01:41:11.624Z,15.30
2018-06-20T01:43:40.326Z,18.03
2018-06-20T01:46:08.974Z,14.23
2018-06-20T01:48:37.577Z,16.60
2018-06-20T01:51:06.194Z,15.03
2018-06-20T01:53:34.982Z,16.43
2018-06-20T01:56:03.272Z,14.70
2018-06-20T01:58:31.820Z,14.13
2018-06-20T02:01:00.423Z,17.73
2018-06-20T02:03:28.693Z,13.50
2018-06-20T02:05:57.345Z,15.07
2018-06-20T02:08:26.014Z,16.57
2018-06-20T02:10:54.568Z,16.13
2018-06-20T02:13:23.204Z,15.43
2018-06-20T02:15:51.758Z,18.17
2018-06-20T02:18:20.516Z,18.40
2018-06-20T02:20:48.814Z,16.07
2018-06-20T02:23:17.368Z,15.97
2018-06-20T02:25:45.917Z,15.53
2018-06-20T02:28:15.147Z,14.80
2018-06-20T02:30:43.536Z,14.00
2018-06-20T02:33:12.888Z,15.60
2018-06-20T02:35:41.989Z,12.73
2018-06-20T02:38:10.617Z,15.90
2018-06-20T02:40:39.239Z,13.23
2018-06-20T02:43:07.821Z,14.97
2018-06-20T02:45:36.508Z,13.23
2018-06-20T02:48:05.155Z,13.63
2018-06-20T02:50:33.776Z,12.97
2018-06-20T02:53:02.401Z,13.97
2018-06-20T02:55:30.990Z,12.47
2018-06-20T02:57:59.663Z,12.23
2018-06-20T03:00:28.305Z,16.73
2018-06-20T03:02:56.883Z,14.33
2018-06-20T03:05:25.443Z,12.87
2018-06-20T03:07:54.057Z,13.27
2018-06-20T03:10:22.613Z,14.37
2018-06-20T03:12:51.229Z,13.47
2018-06-20T03:15:19.773Z,14.23
2018-06-20T03:17:48.419Z,12.60
2018-06-20T03:20:16.978Z,11.90
2018-06-20T03:22:45.537Z,14.97
2018-06-20T03:25:15.030Z,13.90
2018-06-20T03:27:44.565Z,18.77
2018-06-20T03:30:13.472Z,14.67
2018-06-20T03:32:42.483Z,15.07
2018-06-20T03:35:11.066Z,13.47
2018-06-20T03:37:39.623Z,14.47
2018-06-20T03:40:08.218Z,15.77
2018-06-20T03:42:36.770Z,14.77
2018-06-20T03:45:05.528Z,17.17
2018-06-20T03:47:33.783Z,15.40
2018-06-20T03:50:02.083Z,14.00
2018-06-20T03:52:30.322Z,13.87
2018-06-20T03:54:59.058Z,13.97
2018-06-20T03:57:27.333Z,14.23
2018-06-20T03:59:55.917Z,14.03
2018-06-20T04:02:24.491Z,14.20
2018-06-20T04:04:53.031Z,15.93
2018-06-20T04:07:21.638Z,14.33
2018-06-20T04:09:50.183Z,16.00
2018-06-20T04:12:18.816Z,19.33
2018-06-20T04:14:47.114Z,13.47
2018-06-20T04:17:15.693Z,15.20
2018-06-20T04:19:45.080Z,14.30
2018-06-20T04:22:14.576Z,16.63
2018-06-20T04:24:43.843Z,16.67
2018-06-20T04:27:12.419Z,16.47
2018-06-20T04:29:41.024Z,14.30
2018-06-20T04:32:09.626Z,19.00
2018-06-20T04:34:38.264Z,15.33
2018-06-20T04:37:06.753Z,16.10
2018-06-20T04:39:35.371Z,15.27
2018-06-20T04:42:03.951Z,15.53
2018-06-20T04:44:32.536Z,15.47
2018-06-20T04:47:01.078Z,13.93
2018-06-20T04:49:29.685Z,13.83
2018-06-20T04:51:58.207Z,14.97
2018-06-20T04:54:26.567Z,15.97
2018-06-20T04:56:55.184Z,17.00
2018-06-20T04:59:23.775Z,16.37
2018-06-20T05:01:52.343Z,14.73
2018-06-20T05:04:20.913Z,13.93
2018-06-20T05:06:49.486Z,13.30
2018-06-20T05:09:19.502Z,14.37
2018-06-20T05:11:49.533Z,13.23
2018-06-20T05:14:18.747Z,13.53
2018-06-20T05:16:47.315Z,14.27
2018-06-20T05:19:15.943Z,17.97
2018-06-20T05:21:45.530Z,14.40
2018-06-20T05:24:14.132Z,14.67
2018-06-20T05:26:43.092Z,16.67
2018-06-20T05:29:11.683Z,15.47
2018-06-20T05:31:40.301Z,15.20
2018-06-20T05:34:08.831Z,13.40
2018-06-20T05:36:37.102Z,15.70
2018-06-20T05:39:08.052Z,14.77
2018-06-20T05:41:36.763Z,17.50
2018-06-20T05:44:05.667Z,14.43
2018-06-20T05:46:34.251Z,15.17
2018-06-20T05:49:02.827Z,16.33
2018-06-20T05:51:31.352Z,14.87
2018-06-20T05:54:00.003Z,18.30
2018-06-20T05:56:28.617Z,13.03
2018-06-20T05:58:57.432Z,15.17
2018-06-20T06:01:26.004Z,14.47
2018-06-20T06:03:54.330Z,13.67
2018-06-20T06:06:22.912Z,12.17
2018-06-20T06:08:51.505Z,12.37
2018-06-20T06:11:20.075Z,14.43
2018-06-20T06:13:48.784Z,12.37
2018-06-20T06:16:17.412Z,11.33
2018-06-20T06:18:46.043Z,10.37
2018-06-20T06:21:15.248Z,10.57
2018-06-20T06:23:44.392Z,9.77
2018-06-20T06:26:12.975Z,11.70
2018-06-20T06:28:41.647Z,10.37
2018-06-20T06:31:10.244Z,9.67
2018-06-20T06:33:38.798Z,9.57
2018-06-20T06:36:07.515Z,9.60
2018-06-20T06:38:36.087Z,12.50
2018-06-20T06:41:04.425Z,9.60
2018-06-20T06:43:33.071Z,9.10
2018-06-20T06:46:01.740Z,12.87
2018-06-20T06:48:30.352Z,7.97
2018-06-20T06:50:59.063Z,7.73
2018-06-20T06:53:27.782Z,7.90
2018-06-20T06:55:56.794Z,9.27
2018-06-20T06:58:25.460Z,10.33
2018-06-20T07:00:54.231Z,9.07
2018-06-20T07:03:22.735Z,11.60
2018-06-20T07:05:51.124Z,7.57
2018-06-20T07:08:19.706Z,12.60
2018-06-20T07:10:48.313Z,7.53
2018-06-20T07:13:17.019Z,7.40
2018-06-20T07:15:46.715Z,8.73
2018-06-20T07:18:15.969Z,11.33
2018-06-20T07:20:45.576Z,10.93
2018-06-20T07:23:14.721Z,8.97
2018-06-20T07:25:43.851Z,7.77
2018-06-20T07:28:13.887Z,10.17
2018-06-20T07:30:42.489Z,8.17
2018-06-20T07:33:11.070Z,9.80
2018-06-20T07:35:39.892Z,10.27
2018-06-20T07:38:08.327Z,8.70
2018-06-20T07:40:36.570Z,8.23
2018-06-20T07:43:05.188Z,10.90
2018-06-20T07:45:33.767Z,8.70
2018-06-20T07:48:02.138Z,9.67
2018-06-20T07:50:30.808Z,9.23
2018-06-20T07:52:59.919Z,10.80
2018-06-20T07:55:31.448Z,9.53
2018-06-20T07:58:00.230Z,10.20
2018-06-20T08:00:34.440Z,9.43
2018-06-20T08:03:21.228Z,12.27
2018-06-20T08:05:55.277Z,10.03
2018-06-20T08:08:29.184Z,10.27
2018-06-20T08:11:03.053Z,10.30
2018-06-20T08:13:38.464Z,9.43
2018-06-20T08:18:18.036Z,12.93
2018-06-20T08:20:48.083Z,10.57
2018-06-20T08:23:17.247Z,9.90
2018-06-20T08:25:47.747Z,9.53
2018-06-20T08:28:17.072Z,9.73
2018-06-20T08:30:46.068Z,10.73
2018-06-20T08:33:15.402Z,12.97
2018-06-20T08:35:44.645Z,13.33
2018-06-20T08:38:17.526Z,12.33
2018-06-20T08:40:47.363Z,11.33
2018-06-20T08:43:17.286Z,11.03
2018-06-20T08:45:55.771Z,12.07
2018-06-20T08:48:25.521Z,16.13
2018-06-20T08:50:57.972Z,12.53
2018-06-20T08:53:31.040Z,10.63
2018-06-20T08:56:07.647Z,12.83
2018-06-20T08:58:45.212Z,15.17
2018-06-20T09:01:17.143Z,12.30
2018-06-20T09:03:47.553Z,11.67
2018-06-20T09:06:25.399Z,15.83
2018-06-20T09:09:06.984Z,12.43
2018-06-20T09:11:46.494Z,11.43
2018-06-20T09:14:39.115Z,12.30
2018-06-20T09:17:16.232Z,13.00
2018-06-20T09:19:52.927Z,11.60
2018-06-20T09:22:22.162Z,11.67
2018-06-20T09:24:54.709Z,13.37
2018-06-20T09:27:23.976Z,12.13
2018-06-20T09:29:53.138Z,12.53
2018-06-20T09:32:22.068Z,11.50
2018-06-20T09:34:51.436Z,13.57
2018-06-20T09:37:20.823Z,11.23
2018-06-20T09:39:49.872Z,11.20
2018-06-20T09:42:20.732Z,11.77
2018-06-20T09:44:51.733Z,12.85
2018-06-20T09:47:25.000Z,14.10
2018-06-20T09:50:01.404Z,10.90
2018-06-20T09:52:31.568Z,10.00
2018-06-20T09:55:12.310Z,10.33
2018-06-20T09:57:46.269Z,12.70
2018-06-20T10:00:21.907Z,11.50
2018-06-20T10:02:56.300Z,12.75
2018-06-20T10:05:31.215Z,12.97
2018-06-20T10:08:16.396Z,14.00
2018-06-20T10:11:10.388Z,12.20
2018-06-20T10:13:49.068Z,11.40
2018-06-20T10:16:19.307Z,11.60
2018-06-20T10:18:50.039Z,12.70
2018-06-20T10:21:26.850Z,14.28
2018-06-20T10:23:55.708Z,15.65
2018-06-20T10:26:24.616Z,12.27
2018-06-20T10:28:53.330Z,11.67
2018-06-20T10:31:26.426Z,12.98
2018-06-20T10:33:56.329Z,13.48
2018-06-20T10:36:26.027Z,12.78
2018-06-20T10:38:54.800Z,13.08
2018-06-20T10:41:40.092Z,20.27
2018-06-20T10:44:17.506Z,11.88
2018-06-20T10:46:54.417Z,14.60
2018-06-20T10:49:23.243Z,12.55
2018-06-20T10:51:52.319Z,17.85
2018-06-20T10:54:21.072Z,10.48
2018-06-20T10:56:55.056Z,12.25
2018-06-20T10:59:29.237Z,10.03
2018-06-20T11:02:03.569Z,13.68
2018-06-20T11:04:39.478Z,13.00
2018-06-20T11:07:16.495Z,10.25
2018-06-20T11:09:54.184Z,10.53
2018-06-20T11:12:28.741Z,9.35
2018-06-20T11:14:57.545Z,8.80
2018-06-20T11:17:26.363Z,9.55
2018-06-20T11:19:55.720Z,9.18
2018-06-20T11:22:24.557Z,9.98
2018-06-20T11:24:56.167Z,9.90
2018-06-20T11:27:25.088Z,12.00
2018-06-20T11:29:54.137Z,9.18
2018-06-20T11:32:30.341Z,8.88
2018-06-20T11:34:59.671Z,12.65
2018-06-20T11:37:29.056Z,8.33
2018-06-20T11:39:59.664Z,8.58
2018-06-20T11:42:28.780Z,9.10
2018-06-20T11:45:01.544Z,7.50
2018-06-20T11:50:17.020Z,7.40
2018-06-20T11:53:02.487Z,6.87
2018-06-20T11:55:40.555Z,7.55
2018-06-20T11:58:15.142Z,6.80
2018-06-20T12:01:01.453Z,8.10
2018-06-20T12:03:35.382Z,9.60
2018-06-20T12:06:21.545Z,6.90
2018-06-20T12:08:56.822Z,5.80
2018-06-20T12:14:42.925Z,8.03
2018-06-20T12:17:13.615Z,7.42
2018-06-20T12:22:44.648Z,7.08
2018-06-20T12:25:28.736Z,9.30
2018-06-20T12:28:04.441Z,9.20
2018-06-20T12:30:43.374Z,6.87
2018-06-20T12:33:18.855Z,7.17
2018-06-20T12:36:02.864Z,7.92
2018-06-20T12:38:39.330Z,10.53
2018-06-20T12:41:25.534Z,8.00
2018-06-20T12:44:00.088Z,7.67
2018-06-20T12:46:37.840Z,7.92
2018-06-20T12:49:17.667Z,8.08
2018-06-20T12:51:47.225Z,7.70
2018-06-20T12:54:24.741Z,7.47
2018-06-20T12:56:57.952Z,7.58
2018-06-20T12:59:26.956Z,6.33
2018-06-20T13:01:56.591Z,7.78
2018-06-20T13:04:29.668Z,6.58
2018-06-20T13:06:58.621Z,6.87
2018-06-20T13:09:30.844Z,6.35
2018-06-20T13:12:00.538Z,5.50
2018-06-20T13:14:32.006Z,6.00
2018-06-20T13:17:06.817Z,6.85
2018-06-20T13:19:38.466Z,5.45
2018-06-20T13:22:07.990Z,5.83
2018-06-20T13:24:43.265Z,4.60
2018-06-20T13:27:51.058Z,4.83
2018-06-20T13:30:20.133Z,4.58
2018-06-20T13:32:57.662Z,5.33
2018-06-20T13:35:40.723Z,5.45
2018-06-20T13:38:15.962Z,6.50
2018-06-20T13:40:50.489Z,4.75
2018-06-20T13:43:30.535Z,4.95
2018-06-20T13:46:06.812Z,4.90
2018-06-20T13:48:37.764Z,4.50
2018-06-20T13:51:07.021Z,4.50
2018-06-20T13:53:45.067Z,8.25
2018-06-20T13:56:25.601Z,6.25
2018-06-20T13:58:59.601Z,5.92
2018-06-20T14:01:42.106Z,5.53
2018-06-20T14:04:24.897Z,3.98
2018-06-20T14:06:57.519Z,4.12
2018-06-20T14:09:38.854Z,4.50
2018-06-20T14:12:08.571Z,5.03
2018-06-20T14:14:38.165Z,5.35
2018-06-20T14:17:10.242Z,5.20
2018-06-20T14:19:44.258Z,5.10
2018-06-20T14:22:16.288Z,4.95
2018-06-20T14:24:50.089Z,4.65
2018-06-20T14:27:40.886Z,5.70
2018-06-20T14:30:17.538Z,5.08
2018-06-20T14:33:00.909Z,6.10
2018-06-20T14:35:36.346Z,5.25
2018-06-20T14:39:09.096Z,5.05
2018-06-20T14:41:45.967Z,4.72
2018-06-20T14:44:14.754Z,4.62
2018-06-20T14:46:43.358Z,6.03
2018-06-20T14:49:11.834Z,4.95
2018-06-20T14:51:40.628Z,5.58
2018-06-20T14:54:09.264Z,4.92
2018-06-20T14:56:37.883Z,4.92
2018-06-20T14:59:06.440Z,5.40
2018-06-20T15:01:35.053Z,4.90
2018-06-20T15:04:03.614Z,4.53
2018-06-20T15:06:32.291Z,4.90
2018-06-20T15:09:00.826Z,4.50
2018-06-20T15:11:29.335Z,5.85
2018-06-20T15:13:57.971Z,4.78
2018-06-20T15:16:32.169Z,5.10
2018-06-20T15:19:00.469Z,4.67
2018-06-20T15:21:29.144Z,4.92
2018-06-20T15:23:58.704Z,4.80
2018-06-20T15:26:32.523Z,5.35
2018-06-20T15:29:07.202Z,4.97
2018-06-20T15:31:41.171Z,5.30
2018-06-20T15:34:15.349Z,6.03
2018-06-20T15:36:49.722Z,5.10
2018-06-20T15:39:19.785Z,5.45
2018-06-20T15:41:48.733Z,5.08
2018-06-20T15:44:17.466Z,5.00
2018-06-20T15:46:46.573Z,5.70
2018-06-20T15:49:15.402Z,6.53
2018-06-20T15:51:44.211Z,5.40
2018-06-20T15:54:15.680Z,5.65
2018-06-20T15:56:44.614Z,5.60
2018-06-20T15:59:13.547Z,4.80
2018-06-20T16:04:17.053Z,6.12
2018-06-20T16:06:45.526Z,4.35
2018-06-20T16:09:19.755Z,6.15
2018-06-20T16:11:48.577Z,6.75
2018-06-20T16:14:17.195Z,5.20
2018-06-20T16:16:45.872Z,5.72
2018-06-20T16:19:19.991Z,6.50
2018-06-20T16:21:54.209Z,7.33
2018-06-20T16:24:28.260Z,5.45
2018-06-20T16:27:02.431Z,5.28
2018-06-20T16:29:36.460Z,5.22
2018-06-20T16:32:05.424Z,6.62
2018-06-20T16:34:34.757Z,4.83
2018-06-20T16:37:03.173Z,4.70
2018-06-20T16:39:31.965Z,5.50
2018-06-20T16:42:01.950Z,5.00
2018-06-20T16:44:31.270Z,4.65
2018-06-20T16:47:00.277Z,4.17
2018-06-20T16:49:28.908Z,4.78
2018-06-20T16:51:57.859Z,5.25
2018-06-20T16:54:26.681Z,4.42
2018-06-20T16:56:55.891Z,5.60
2018-06-20T16:59:25.727Z,3.83
2018-06-20T17:02:01.395Z,4.47
2018-06-20T17:04:29.986Z,4.83
2018-06-20T17:06:58.498Z,4.47
2018-06-20T17:09:27.742Z,4.28
2018-06-20T17:12:01.885Z,4.78
2018-06-20T17:14:36.049Z,4.75
2018-06-20T17:18:11.745Z,7.00
2018-06-20T17:20:45.830Z,10.95
2018-06-20T17:23:20.136Z,5.20
2018-06-20T17:25:55.583Z,4.55
2018-06-20T17:28:24.562Z,4.65
2018-06-20T17:30:54.356Z,5.78
2018-06-20T17:33:24.019Z,8.50
2018-06-20T17:35:53.394Z,4.65
2018-06-20T17:38:23.767Z,5.72
2018-06-20T17:40:53.953Z,4.65
2018-06-20T17:43:23.511Z,5.55
2018-06-20T17:45:53.100Z,5.15
2018-06-20T17:48:23.090Z,5.60
2018-06-20T17:50:53.287Z,4.50
2018-06-20T17:53:22.880Z,4.45
2018-06-20T17:55:51.697Z,4.90
2018-06-20T17:58:20.299Z,7.72
2018-06-20T18:00:54.156Z,9.00
2018-06-20T18:03:23.553Z,6.65
2018-06-20T18:05:57.591Z,5.62
2018-06-20T18:08:31.490Z,7.58
2018-06-20T18:11:06.000Z,6.87
2018-06-20T18:13:39.870Z,9.85
2018-06-20T18:16:13.862Z,8.00
2018-06-20T18:18:43.956Z,7.35
2018-06-20T18:21:12.609Z,7.35
2018-06-20T18:23:41.772Z,6.20
2018-06-20T18:26:10.977Z,5.72
2018-06-20T18:28:39.774Z,5.87
2018-06-20T18:31:08.363Z,6.03
2018-06-20T18:33:37.099Z,7.45
2018-06-20T18:36:05.557Z,6.50
2018-06-20T18:38:34.249Z,10.35
2018-06-20T18:41:03.808Z,16.32
2018-06-20T18:43:32.460Z,17.52
2018-06-20T18:46:00.875Z,12.35
2018-06-20T18:48:29.711Z,11.65
2018-06-20T18:50:58.573Z,8.80
2018-06-20T18:53:28.249Z,11.00
2018-06-20T18:55:56.905Z,9.63
2018-06-20T18:58:30.832Z,8.27
2018-06-20T19:01:04.966Z,7.63
2018-06-20T19:03:39.047Z,6.93
2018-06-20T19:06:12.694Z,6.80
2018-06-20T19:08:46.810Z,7.53
2018-06-20T19:11:15.515Z,16.40
2018-06-20T19:13:44.136Z,10.07
2018-06-20T19:16:12.557Z,14.53
2018-06-20T19:18:41.955Z,14.80
2018-06-20T19:21:10.681Z,9.87
2018-06-20T19:23:39.474Z,11.87
2018-06-20T19:26:08.032Z,15.30
2018-06-20T19:28:36.628Z,9.40
2018-06-20T19:31:05.222Z,8.10
2018-06-20T19:33:33.839Z,7.20
2018-06-20T19:36:02.483Z,8.97
2018-06-20T19:38:31.095Z,9.37
2018-06-20T19:40:59.433Z,8.73
2018-06-20T19:43:28.625Z,18.33
2018-06-20T19:45:57.782Z,8.57
2018-06-20T19:48:26.807Z,10.17
2018-06-20T19:50:55.523Z,10.43
2018-06-20T19:53:24.956Z,8.80
2018-06-20T19:55:54.215Z,9.10
2018-06-20T19:58:23.927Z,9.80
2018-06-20T20:00:53.017Z,10.67
2018-06-20T20:03:22.021Z,9.83
2018-06-20T20:05:50.631Z,10.23
2018-06-20T20:08:19.089Z,8.80
2018-06-20T20:10:47.950Z,9.80
2018-06-20T20:13:16.520Z,13.03
2018-06-20T20:15:45.140Z,10.27
2018-06-20T20:18:13.689Z,12.63
2018-06-20T20:20:42.250Z,8.93
2018-06-20T20:23:10.845Z,13.80
2018-06-20T20:25:39.504Z,9.90
2018-06-20T20:28:08.078Z,10.23
2018-06-20T20:30:36.372Z,10.47
2018-06-20T20:33:05.141Z,10.73
2018-06-20T20:35:33.850Z,11.27
2018-06-20T20:38:02.510Z,14.23
2018-06-20T20:40:31.222Z,15.97
2018-06-20T20:42:59.932Z,10.70
2018-06-20T20:45:28.551Z,14.83
2018-06-20T20:47:57.161Z,10.17
2018-06-20T20:50:25.898Z,12.97
2018-06-20T20:52:55.295Z,11.37
2018-06-20T20:55:24.938Z,12.03
2018-06-20T20:57:54.676Z,14.60
2018-06-20T21:00:23.974Z,12.90
2018-06-20T21:02:53.117Z,16.13
2018-06-20T21:05:22.120Z,13.97
2018-06-20T21:07:51.253Z,11.53
2018-06-20T21:10:20.754Z,12.23
2018-06-20T21:12:49.027Z,10.87
2018-06-20T21:15:17.371Z,10.53
2018-06-20T21:17:45.923Z,13.90
2018-06-20T21:20:14.541Z,12.70
2018-06-20T21:22:43.095Z,15.40
2018-06-20T21:25:11.744Z,12.67
2018-06-20T21:27:40.091Z,14.87
2018-06-20T21:30:08.649Z,12.27
2018-06-20T21:32:37.311Z,14.40
2018-06-20T21:35:05.972Z,11.77
2018-06-20T21:37:34.542Z,13.03
2018-06-20T21:40:04.741Z,15.13
2018-06-20T21:42:33.376Z,14.30
2018-06-20T21:45:02.003Z,11.37
2018-06-20T21:47:30.642Z,14.87
2018-06-20T21:49:58.958Z,13.13
2018-06-20T21:52:27.579Z,13.83
2018-06-20T21:54:55.891Z,14.03
2018-06-20T21:57:25.651Z,15.90
2018-06-20T21:59:55.204Z,14.90
2018-06-20T22:02:25.405Z,13.87
2018-06-20T22:04:54.978Z,11.77
2018-06-20T22:07:24.622Z,14.47
2018-06-20T22:09:52.961Z,15.60
2018-06-20T22:12:21.547Z,14.40
2018-06-20T22:14:50.215Z,13.10
2018-06-20T22:17:18.752Z,14.23
2018-06-20T22:19:47.001Z,15.23
2018-06-20T22:22:15.602Z,12.33
2018-06-20T22:24:44.210Z,15.37
2018-06-20T22:27:12.863Z,12.67
2018-06-20T22:29:41.473Z,13.27
2018-06-20T22:32:10.037Z,12.40
2018-06-20T22:34:38.613Z,15.93
2018-06-20T22:37:07.160Z,13.40
2018-06-20T22:39:35.725Z,13.17
2018-06-20T22:42:04.274Z,14.17
2018-06-20T22:44:32.554Z,16.23
2018-06-20T22:47:00.823Z,15.20
2018-06-20T22:49:29.118Z,16.27
2018-06-20T22:51:57.689Z,16.47
2018-06-20T22:54:25.976Z,14.47
2018-06-20T22:56:55.156Z,14.23
2018-06-20T22:59:24.515Z,15.80
2018-06-20T23:01:53.041Z,15.80
2018-06-20T23:04:22.098Z,16.73
2018-06-20T23:06:50.635Z,19.10
2018-06-20T23:09:19.229Z,17.10
2018-06-20T23:11:48.860Z,17.03
2018-06-20T23:14:17.464Z,15.43
2018-06-20T23:16:45.970Z,16.30
2018-06-20T23:19:14.626Z,15.50
2018-06-20T23:21:43.500Z,15.07
2018-06-20T23:24:12.084Z,16.07
2018-06-20T23:26:40.679Z,15.20
2018-06-20T23:29:09.248Z,15.43
2018-06-20T23:31:37.769Z,14.13
2018-06-20T23:34:06.365Z,15.93
2018-06-20T23:36:34.595Z,15.20
2018-06-20T23:39:03.288Z,16.67
2018-06-20T23:41:31.809Z,15.37
2018-06-20T23:44:00.097Z,14.30
2018-06-20T23:46:28.366Z,16.63
2018-06-20T23:48:56.979Z,16.63
2018-06-20T23:51:25.525Z,15.73
2018-06-20T23:53:53.847Z,16.17
2018-06-20T23:56:22.527Z,13.53
2018-06-20T23:58:51.135Z,13.83
